createdAt,value
2023-04-16T06:38:34.196Z,9.302916
2023-04-16T06:39:33.878Z,9.302853
2023-04-16T06:40:33.829Z,9.302899
2023-04-16T06:41:33.815Z,9.302966
2023-04-16T06:42:33.785Z,9.302939
2023-04-16T06:43:33.862Z,9.303082
2023-04-16T06:44:33.906Z,9.302933
2023-04-16T06:45:33.782Z,9.302589
2023-04-16T06:46:33.878Z,9.302467
2023-04-16T06:47:33.814Z,9.302881
2023-04-16T06:48:33.766Z,9.303076
2023-04-16T06:49:33.834Z,9.303073
2023-04-16T06:50:33.719Z,9.303142
2023-04-16T06:51:33.987Z,9.303190
2023-04-16T06:52:33.811Z,9.303144
2023-04-16T06:53:33.767Z,9.303176
2023-04-16T06:54:33.900Z,9.303122
2023-04-16T06:55:33.736Z,9.303145
2023-04-16T06:56:33.887Z,9.303168
2023-04-16T06:57:34.734Z,9.303051
2023-04-16T06:58:34.511Z,9.303100
2023-04-16T06:59:33.660Z,9.303046
2023-04-16T07:00:33.702Z,9.303179
2023-04-16T07:01:33.703Z,9.303278
2023-04-16T07:02:33.850Z,9.303231
2023-04-16T07:03:33.727Z,9.303280
2023-04-16T07:11:48.800Z,9.303106
2023-04-16T07:12:48.791Z,9.303158
2023-04-16T07:13:48.713Z,9.303136
2023-04-16T07:14:48.766Z,9.303217
2023-04-16T07:15:48.945Z,9.303246
2023-04-16T07:16:48.749Z,9.303267
2023-04-16T07:17:48.693Z,9.303118
2023-04-16T07:18:49.322Z,9.303141
2023-04-16T07:19:48.708Z,9.303145
2023-04-16T07:20:48.765Z,9.303200
2023-04-16T07:21:48.692Z,9.303189
2023-04-16T07:22:48.635Z,9.303275
2023-04-16T07:23:48.781Z,9.303281
2023-04-16T07:24:48.769Z,9.303188
2023-04-16T07:25:48.805Z,9.303154
2023-04-16T07:26:48.624Z,9.303218
2023-04-16T07:27:48.613Z,9.303203
2023-04-16T07:28:48.695Z,9.303139
2023-04-16T07:29:48.601Z,9.302898
2023-04-16T07:30:49.621Z,9.302970
2023-04-16T07:31:48.547Z,9.303076
2023-04-16T07:32:48.605Z,9.303053
2023-04-16T07:33:48.511Z,9.303140
2023-04-16T07:34:49.435Z,9.303056
2023-04-16T07:35:48.535Z,9.303121
2023-04-16T07:36:48.533Z,9.302959
2023-04-16T07:37:48.524Z,9.302984
2023-04-16T07:38:48.528Z,9.303004
2023-04-16T07:39:48.672Z,9.303061
2023-04-16T07:40:48.510Z,9.302954
2023-04-16T07:41:48.556Z,9.302990
2023-04-16T07:42:48.426Z,9.303046
2023-04-16T07:43:48.470Z,9.303058
2023-04-16T07:44:48.717Z,9.303101
2023-04-16T07:45:48.483Z,9.303015
2023-04-16T07:46:48.451Z,9.303070
2023-04-16T07:47:48.497Z,9.303101
2023-04-16T07:48:48.381Z,9.303035
2023-04-16T07:49:48.409Z,9.303116
2023-04-16T07:50:48.423Z,9.303136
2023-04-16T07:51:49.332Z,9.303150
2023-04-16T07:52:48.355Z,9.303096
2023-04-16T07:53:48.501Z,9.303082
2023-04-16T07:54:48.340Z,9.303077
2023-04-16T07:55:48.497Z,9.303089
2023-04-16T07:56:48.330Z,9.303243
2023-04-16T07:57:48.267Z,9.303065
2023-04-16T07:58:48.320Z,9.303238
2023-04-16T07:59:48.270Z,9.303026
2023-04-16T08:00:49.797Z,9.302995
2023-04-16T08:01:48.422Z,9.303011
2023-04-16T08:02:48.342Z,9.303185
2023-04-16T08:03:48.538Z,9.303205
2023-04-16T08:04:48.289Z,9.303202
2023-04-16T08:05:48.329Z,9.303027
2023-04-16T08:06:48.284Z,9.303059
2023-04-16T08:07:48.173Z,9.303078
2023-04-16T08:08:48.257Z,9.303162
2023-04-16T08:09:48.216Z,9.303166
2023-04-16T08:10:48.173Z,9.303031
2023-04-16T08:11:48.190Z,9.303089
2023-04-16T08:12:48.176Z,9.303013
2023-04-16T08:13:48.077Z,9.302992
2023-04-16T08:14:48.118Z,9.302814
2023-04-16T08:15:48.418Z,9.302910
2023-04-16T08:16:48.427Z,9.303048
2023-04-16T08:17:48.139Z,9.303083
2023-04-16T08:18:48.362Z,9.303147
2023-04-16T08:19:48.163Z,9.303034
2023-04-16T08:20:48.337Z,9.303054
2023-04-16T08:21:48.153Z,9.302999
2023-04-16T08:22:48.205Z,9.302817
2023-04-16T08:23:48.726Z,9.302780
2023-04-16T08:24:48.101Z,9.302787
2023-04-16T08:25:48.223Z,9.302737
2023-04-16T08:26:48.367Z,9.302768
2023-04-16T08:27:49.257Z,9.302806
2023-04-16T08:28:48.437Z,9.302909
2023-04-16T08:29:48.475Z,9.302954
2023-04-16T08:30:48.129Z,9.302958
2023-04-16T08:31:48.312Z,9.302821
2023-04-16T08:32:50.034Z,9.302824
2023-04-16T08:33:49.375Z,9.302848
2023-04-16T08:34:48.310Z,9.302962
2023-04-16T08:36:16.120Z,9.302904
2023-04-16T08:36:48.370Z,9.302968
2023-04-16T08:37:48.535Z,9.303043
2023-04-16T08:56:12.428Z,9.303455
2023-04-16T08:57:12.270Z,9.303194
2023-04-16T08:58:12.323Z,9.303107
2023-04-16T08:59:12.394Z,9.303078
2023-04-16T09:00:12.333Z,9.303051
2023-04-16T09:01:12.259Z,9.303039
2023-04-16T09:02:12.332Z,9.303025
2023-04-16T09:03:12.287Z,9.303061
2023-04-16T09:04:12.366Z,9.303124
2023-04-16T09:05:12.188Z,9.302890
2023-04-16T09:22:34.332Z,9.302956
2023-04-16T09:23:34.148Z,9.303014
2023-04-16T09:24:34.037Z,9.303072
2023-04-16T09:25:34.012Z,9.303104
2023-04-16T09:26:34.103Z,9.303105
